createdAt,value
2019-01-18T00:02:45.026Z,3.60
2019-01-18T00:05:48.995Z,1.43
2019-01-18T00:08:52.900Z,6.10
2019-01-18T00:11:56.866Z,2.50
2019-01-18T00:15:00.833Z,2.87
2019-01-18T00:18:05.324Z,2.30
2019-01-18T00:21:09.653Z,7.17
2019-01-18T00:24:13.465Z,4.70
2019-01-18T00:27:17.347Z,5.50
2019-01-18T00:30:21.551Z,8.37
2019-01-18T00:33:25.384Z,9.17
2019-01-18T00:36:29.249Z,11.37
2019-01-18T00:39:33.420Z,6.83
2019-01-18T00:42:37.539Z,5.80
2019-01-18T00:45:41.496Z,4.63
2019-01-18T00:48:45.477Z,9.60
2019-01-18T00:51:49.468Z,2.17
2019-01-18T00:54:53.372Z,2.40
2019-01-18T00:57:57.322Z,2.70
2019-01-18T01:01:01.196Z,2.17
2019-01-18T01:04:05.642Z,5.93
2019-01-18T01:07:09.511Z,2.83
2019-01-18T01:10:13.952Z,2.97
2019-01-18T01:13:17.924Z,6.07
2019-01-18T01:16:21.962Z,3.83
2019-01-18T01:19:25.908Z,4.23
2019-01-18T01:22:29.973Z,3.43
2019-01-18T01:25:33.848Z,2.90
2019-01-18T01:28:37.812Z,3.80
2019-01-18T01:31:41.737Z,5.77
2019-01-18T01:34:45.696Z,3.13
2019-01-18T01:37:50.073Z,2.17
2019-01-18T01:40:54.014Z,4.33
2019-01-18T01:43:57.891Z,5.27
2019-01-18T01:47:01.755Z,5.23
2019-01-18T01:50:07.427Z,3.33
2019-01-18T01:53:11.268Z,3.10
2019-01-18T01:56:15.372Z,2.90
2019-01-18T01:59:19.335Z,4.27
2019-01-18T02:02:23.321Z,2.57
2019-01-18T02:05:27.279Z,2.30
2019-01-18T02:08:31.172Z,3.40
2019-01-18T02:11:35.142Z,4.60
2019-01-18T02:14:39.122Z,1.93
2019-01-18T02:17:43.071Z,4.43
2019-01-18T02:20:46.958Z,3.03
2019-01-18T02:23:50.894Z,4.17
2019-01-18T02:26:54.764Z,2.50
2019-01-18T02:29:58.629Z,4.30
2019-01-18T02:33:02.503Z,3.87
2019-01-18T02:36:06.682Z,3.47
2019-01-18T02:39:10.621Z,3.97
2019-01-18T02:42:14.487Z,9.57
2019-01-18T02:45:20.461Z,5.63
2019-01-18T02:48:24.361Z,6.57
2019-01-18T02:51:28.148Z,7.73
2019-01-18T02:54:32.016Z,4.43
2019-01-18T02:57:36.201Z,4.90
2019-01-18T03:00:40.089Z,5.17
2019-01-18T03:03:43.879Z,3.17
2019-01-18T03:06:47.737Z,2.50
2019-01-18T03:09:51.632Z,2.87
2019-01-18T03:12:55.509Z,2.93
2019-01-18T03:15:59.395Z,7.57
2019-01-18T03:19:03.260Z,3.13
2019-01-18T03:22:07.155Z,0.60
2019-01-18T03:25:13.969Z,3.03
2019-01-18T03:28:17.953Z,2.87
2019-01-18T03:31:21.817Z,1.97
2019-01-18T03:34:25.706Z,4.50
2019-01-18T03:37:29.577Z,4.27
2019-01-18T03:40:33.547Z,3.97
2019-01-18T03:43:37.426Z,5.53
2019-01-18T03:46:41.302Z,3.30
2019-01-18T03:49:45.181Z,1.97
2019-01-18T03:52:49.125Z,4.13
2019-01-18T03:55:53.200Z,3.47
2019-01-18T03:58:57.083Z,2.33
2019-01-18T04:02:00.973Z,6.13
2019-01-18T04:05:05.702Z,4.43
2019-01-18T04:08:09.662Z,1.10
2019-01-18T04:11:13.547Z,5.80
2019-01-18T04:14:17.421Z,2.43
2019-01-18T04:17:21.328Z,2.70
2019-01-18T04:20:25.568Z,0.93
2019-01-18T04:23:29.450Z,1.90
2019-01-18T04:26:33.324Z,1.63
2019-01-18T04:29:37.209Z,5.27
2019-01-18T04:32:41.222Z,2.83
2019-01-18T04:35:45.027Z,3.57
2019-01-18T04:38:48.853Z,3.77
2019-01-18T04:41:52.680Z,1.73
2019-01-18T04:44:56.557Z,3.67
2019-01-18T04:48:00.367Z,4.40
2019-01-18T04:51:04.254Z,5.13
2019-01-18T04:54:08.038Z,4.30
2019-01-18T04:57:11.872Z,2.50
2019-01-18T05:00:23.572Z,2.13
2019-01-18T05:03:27.441Z,5.77
2019-01-18T05:06:31.272Z,4.27
2019-01-18T05:09:35.187Z,4.47
2019-01-18T05:12:39.120Z,1.70
2019-01-18T05:15:43.029Z,6.03
2019-01-18T05:18:46.936Z,1.53
2019-01-18T05:21:50.750Z,2.20
2019-01-18T05:24:54.588Z,3.83
2019-01-18T05:27:58.484Z,3.60
2019-01-18T05:31:02.298Z,5.20
2019-01-18T05:34:06.347Z,2.23
2019-01-18T05:37:10.312Z,3.57
2019-01-18T05:40:15.554Z,1.63
2019-01-18T05:43:19.368Z,3.27
2019-01-18T05:46:23.186Z,3.77
2019-01-18T05:49:27.029Z,3.40
2019-01-18T05:52:32.550Z,4.13
2019-01-18T05:55:36.411Z,2.47
2019-01-18T05:58:40.312Z,2.00
2019-01-18T06:01:44.135Z,3.50
2019-01-18T06:04:49.103Z,4.30
2019-01-18T06:07:52.985Z,3.70
2019-01-18T06:10:56.818Z,2.07
2019-01-18T06:14:00.704Z,6.60
2019-01-18T06:17:04.697Z,3.63
2019-01-18T06:20:09.404Z,2.13
2019-01-18T06:23:13.296Z,1.80
2019-01-18T06:26:17.184Z,2.93
2019-01-18T06:29:21.082Z,4.20
2019-01-18T06:32:24.906Z,2.83
2019-01-18T06:35:28.868Z,3.27
2019-01-18T06:38:32.781Z,4.80
2019-01-18T06:41:52.495Z,3.20
2019-01-18T06:44:56.320Z,3.33
2019-01-18T06:48:00.225Z,4.50
2019-01-18T06:51:04.135Z,5.13
2019-01-18T06:54:08.173Z,6.67
2019-01-18T06:57:12.084Z,4.53
2019-01-18T07:00:22.036Z,4.23
2019-01-18T07:03:25.980Z,3.93
2019-01-18T07:06:29.867Z,1.80
2019-01-18T07:09:33.789Z,5.03
2019-01-18T07:12:37.681Z,3.60
2019-01-18T07:15:41.659Z,1.67
2019-01-18T07:18:45.554Z,2.83
2019-01-18T07:21:49.466Z,3.47
2019-01-18T07:24:53.346Z,5.03
2019-01-18T07:27:57.285Z,4.30
2019-01-18T07:31:01.264Z,3.07
2019-01-18T07:34:05.229Z,3.03
2019-01-18T07:37:09.126Z,5.77
2019-01-18T07:40:13.357Z,3.33
2019-01-18T07:43:17.243Z,3.03
2019-01-18T07:46:21.173Z,2.03
2019-01-18T07:49:25.007Z,8.03
2019-01-18T07:52:28.922Z,1.93
2019-01-18T07:55:32.833Z,4.47
2019-01-18T07:58:36.751Z,2.73
2019-01-18T08:01:40.714Z,4.23
2019-01-18T08:04:44.694Z,8.40
2019-01-18T08:07:48.727Z,3.23
2019-01-18T08:10:52.690Z,3.03
2019-01-18T08:13:56.710Z,3.97
2019-01-18T08:17:00.624Z,2.80
2019-01-18T08:20:05.533Z,6.33
2019-01-18T08:23:09.447Z,4.80
2019-01-18T08:26:13.394Z,8.57
2019-01-18T08:29:17.345Z,12.57
2019-01-18T08:32:21.168Z,7.20
2019-01-18T08:35:25.806Z,8.27
2019-01-18T08:38:29.756Z,12.37
2019-01-18T08:41:33.662Z,12.53
2019-01-18T08:44:37.551Z,14.33
2019-01-18T08:47:41.427Z,6.07
2019-01-18T08:50:45.328Z,3.63
2019-01-18T08:53:49.208Z,2.47
2019-01-18T08:56:53.129Z,6.23
2019-01-18T08:59:57.012Z,6.73
2019-01-18T09:03:00.998Z,9.77
2019-01-18T09:06:05.054Z,6.37
2019-01-18T09:09:09.600Z,7.17
2019-01-18T09:12:13.489Z,10.47
2019-01-18T09:15:17.476Z,5.67
2019-01-18T09:18:21.344Z,10.13
2019-01-18T09:21:25.284Z,8.20
2019-01-18T09:24:29.085Z,5.40
2019-01-18T09:27:32.954Z,6.47
2019-01-18T09:30:36.997Z,3.73
2019-01-18T09:33:40.869Z,3.53
2019-01-18T09:36:44.764Z,27.43
2019-01-18T09:39:48.638Z,28.00
2019-01-18T09:42:52.532Z,27.67
2019-01-18T09:45:56.418Z,15.30
2019-01-18T09:49:00.326Z,15.63
2019-01-18T09:52:04.406Z,13.73
2019-01-18T09:55:09.298Z,16.27
2019-01-18T09:58:13.191Z,10.20
2019-01-18T10:01:17.156Z,11.40
2019-01-18T10:04:21.040Z,15.03
2019-01-18T10:07:24.957Z,11.57
2019-01-18T10:10:28.831Z,14.77
2019-01-18T10:13:32.800Z,7.80
2019-01-18T10:16:36.674Z,11.03
2019-01-18T10:19:40.512Z,12.07
2019-01-18T10:22:45.227Z,14.87
2019-01-18T10:25:49.040Z,11.70
2019-01-18T10:28:52.916Z,6.77
2019-01-18T10:31:56.817Z,10.50
2019-01-18T10:35:00.663Z,7.47
2019-01-18T10:38:05.028Z,11.30
2019-01-18T10:41:09.022Z,6.30
2019-01-18T10:44:12.903Z,8.47
2019-01-18T10:47:16.887Z,16.50
2019-01-18T10:50:23.187Z,14.83
2019-01-18T10:53:27.056Z,10.93
2019-01-18T10:56:30.883Z,10.00
2019-01-18T10:59:34.810Z,9.90
2019-01-18T11:02:38.758Z,19.77
2019-01-18T11:05:42.745Z,14.57
2019-01-18T11:08:46.616Z,12.03
2019-01-18T11:11:50.578Z,6.27
2019-01-18T11:14:54.497Z,13.07
2019-01-18T11:17:58.386Z,15.20
2019-01-18T11:21:16.451Z,12.97
2019-01-18T11:24:20.334Z,10.97
2019-01-18T11:27:24.227Z,10.10
2019-01-18T11:30:28.143Z,16.00
2019-01-18T11:33:32.190Z,12.20
2019-01-18T11:36:36.165Z,12.80
2019-01-18T11:39:40.135Z,18.70
2019-01-18T11:42:44.107Z,9.03
2019-01-18T11:45:48.011Z,12.67
2019-01-18T11:48:51.972Z,10.60
2019-01-18T11:51:55.880Z,11.00
2019-01-18T11:54:59.891Z,9.87
2019-01-18T11:58:03.904Z,10.93
2019-01-18T12:01:07.860Z,15.53
2019-01-18T12:04:11.676Z,13.80
2019-01-18T12:07:15.534Z,14.17
2019-01-18T12:10:21.679Z,8.47
2019-01-18T12:13:25.499Z,9.53
2019-01-18T12:16:29.400Z,9.03
2019-01-18T12:19:33.192Z,8.60
2019-01-18T12:22:37.274Z,7.83
2019-01-18T12:25:41.156Z,6.20
2019-01-18T12:28:45.048Z,9.60
2019-01-18T12:31:48.850Z,9.27
2019-01-18T12:34:52.663Z,11.60
2019-01-18T12:37:56.635Z,14.13
2019-01-18T12:41:00.512Z,6.50
2019-01-18T12:44:04.381Z,17.30
2019-01-18T12:47:08.256Z,12.53
2019-01-18T12:50:19.062Z,10.93
2019-01-18T12:53:23.024Z,10.17
2019-01-18T12:56:26.904Z,8.20
2019-01-18T12:59:30.837Z,9.67
2019-01-18T13:02:35.405Z,9.03
2019-01-18T13:05:50.537Z,10.10
2019-01-18T13:08:54.694Z,6.83
2019-01-18T13:11:58.667Z,9.60
2019-01-18T13:15:02.627Z,17.23
2019-01-18T13:18:06.612Z,14.30
2019-01-18T13:21:10.494Z,6.47
2019-01-18T13:24:14.386Z,13.17
2019-01-18T13:27:18.338Z,11.63
2019-01-18T13:30:22.406Z,17.13
2019-01-18T13:33:26.336Z,25.10
2019-01-18T13:36:30.252Z,19.27
2019-01-18T13:39:34.134Z,32.43
2019-01-18T13:42:38.013Z,52.33
2019-01-18T13:45:42.507Z,32.30
2019-01-18T13:48:46.483Z,67.33
2019-01-18T13:51:50.367Z,38.27
2019-01-18T13:54:54.252Z,14.37
2019-01-18T13:57:58.219Z,20.27
2019-01-18T14:01:02.152Z,90.53
2019-01-18T14:04:06.040Z,30.40
2019-01-18T14:07:10.054Z,26.23
2019-01-18T14:10:16.924Z,14.67
2019-01-18T14:13:20.813Z,7.97
2019-01-18T14:16:24.687Z,10.97
2019-01-18T14:19:28.593Z,10.23
2019-01-18T14:22:32.473Z,14.77
2019-01-18T14:25:36.355Z,7.87
2019-01-18T14:28:40.273Z,12.57
2019-01-18T14:31:44.135Z,10.67
2019-01-18T14:34:48.015Z,11.47
2019-01-18T14:37:51.998Z,20.57
2019-01-18T14:40:55.963Z,23.13
2019-01-18T14:43:59.862Z,12.87
2019-01-18T14:47:03.760Z,14.67
2019-01-18T14:50:12.377Z,8.73
2019-01-18T14:53:16.254Z,11.10
2019-01-18T14:56:20.202Z,6.90
2019-01-18T14:59:24.020Z,22.50
2019-01-18T15:02:27.921Z,13.73
2019-01-18T15:05:31.863Z,9.47
2019-01-18T15:08:35.746Z,9.03
2019-01-18T15:11:39.828Z,8.47
2019-01-18T15:14:43.733Z,7.03
2019-01-18T15:17:47.661Z,7.20
2019-01-18T15:20:51.548Z,13.07
2019-01-18T15:23:55.357Z,15.67
2019-01-18T15:26:59.199Z,9.40
2019-01-18T15:30:06.810Z,11.77
2019-01-18T15:33:09.555Z,14.33
2019-01-18T15:36:13.649Z,11.47
2019-01-18T15:39:17.507Z,13.37
2019-01-18T15:42:21.498Z,11.13
2019-01-18T15:45:25.405Z,10.67
2019-01-18T15:48:29.242Z,11.60
2019-01-18T15:51:33.412Z,14.20
2019-01-18T15:54:37.388Z,17.83
2019-01-18T15:57:41.990Z,12.43
2019-01-18T16:00:46.072Z,15.47
2019-01-18T16:03:50.059Z,9.80
2019-01-18T16:06:53.991Z,7.97
2019-01-18T16:09:58.017Z,8.73
2019-01-18T16:13:01.900Z,13.67
2019-01-18T16:16:25.955Z,14.57
2019-01-18T16:19:29.868Z,17.00
2019-01-18T16:22:33.731Z,8.23
2019-01-18T16:25:38.526Z,6.13
2019-01-18T16:28:42.445Z,6.13
2019-01-18T16:31:46.322Z,12.63
2019-01-18T16:34:50.218Z,7.57
2019-01-18T16:37:54.282Z,16.73
2019-01-18T16:40:58.460Z,11.60
2019-01-18T16:44:02.384Z,12.90
2019-01-18T16:47:06.287Z,13.40
2019-01-18T16:50:13.278Z,15.80
2019-01-18T16:53:17.648Z,12.23
2019-01-18T16:56:21.577Z,21.13
2019-01-18T16:59:25.683Z,13.47
2019-01-18T17:02:29.883Z,19.83
2019-01-18T17:05:34.454Z,8.30
2019-01-18T17:08:38.740Z,16.57
2019-01-18T17:11:42.734Z,12.97
2019-01-18T17:14:46.685Z,19.03
2019-01-18T17:17:50.572Z,25.43
2019-01-18T17:20:54.603Z,10.47
2019-01-18T17:23:58.965Z,15.10
2019-01-18T17:27:02.962Z,10.87
2019-01-18T17:30:09.103Z,12.10
2019-01-18T17:33:13.613Z,15.10
2019-01-18T17:36:56.355Z,15.37
2019-01-18T17:40:26.821Z,19.50
2019-01-18T17:44:14.729Z,17.77
2019-01-18T17:47:50.408Z,14.03
2019-01-18T17:51:15.066Z,7.87
2019-01-18T17:54:46.653Z,9.23
2019-01-18T17:58:29.127Z,6.57
2019-01-18T18:02:04.652Z,5.67
2019-01-18T18:05:41.146Z,8.20
2019-01-18T18:08:57.780Z,6.10
2019-01-18T18:12:42.805Z,8.03
2019-01-18T18:16:19.983Z,7.70
2019-01-18T18:19:35.523Z,10.20
2019-01-18T18:23:14.916Z,12.10
2019-01-18T18:27:01.775Z,11.40
2019-01-18T18:30:42.758Z,7.93
2019-01-18T18:34:30.882Z,7.63
2019-01-18T18:38:17.385Z,4.83
2019-01-18T18:41:57.325Z,7.77
2019-01-18T18:45:37.394Z,5.33
2019-01-18T18:49:08.349Z,9.33
2019-01-18T18:52:48.895Z,7.83
2019-01-18T18:56:52.813Z,10.27
2019-01-18T19:00:43.605Z,7.83
2019-01-18T19:04:13.413Z,13.60
2019-01-18T19:07:37.536Z,35.23
2019-01-18T19:11:15.966Z,14.83
2019-01-18T19:14:30.496Z,15.33
2019-01-18T19:18:02.872Z,34.87
2019-01-18T19:21:37.997Z,23.63
2019-01-18T19:25:07.775Z,16.27
2019-01-18T19:28:45.812Z,12.67
2019-01-18T19:32:29.491Z,16.27
2019-01-18T19:36:18.110Z,22.17
2019-01-18T19:40:14.552Z,22.83
2019-01-18T19:44:08.845Z,11.13
2019-01-18T19:47:28.199Z,20.03
2019-01-18T19:51:07.978Z,12.17
2019-01-18T19:54:35.648Z,14.87
2019-01-18T19:58:25.394Z,7.67
2019-01-18T20:02:07.164Z,9.20
2019-01-18T20:05:33.855Z,10.50
2019-01-18T20:08:51.079Z,5.97
2019-01-18T20:12:25.792Z,11.53
2019-01-18T20:16:13.662Z,4.40
2019-01-18T20:19:39.306Z,7.57
2019-01-18T20:23:33.126Z,7.23
2019-01-18T20:27:06.048Z,2.90
2019-01-18T20:30:19.909Z,3.13
2019-01-18T20:33:50.863Z,7.90
2019-01-18T20:37:07.059Z,9.87
2019-01-18T20:40:46.397Z,10.03
2019-01-18T20:44:18.587Z,16.63
2019-01-18T20:48:16.854Z,15.97
2019-01-18T20:51:31.510Z,13.40
2019-01-18T20:55:09.146Z,9.23
2019-01-18T20:58:47.948Z,12.10
2019-01-18T21:02:15.416Z,14.03
2019-01-18T21:05:45.636Z,10.63
2019-01-18T21:09:13.663Z,10.37
2019-01-18T21:12:31.000Z,8.60
2019-01-18T21:16:11.018Z,7.50
2019-01-18T21:19:40.491Z,12.07
2019-01-18T21:23:46.952Z,13.83
2019-01-18T21:27:10.386Z,9.47
2019-01-18T21:30:48.017Z,11.50
2019-01-18T21:34:34.719Z,7.67
2019-01-18T21:38:26.115Z,11.47
2019-01-18T21:42:17.078Z,12.83
2019-01-18T21:45:56.512Z,9.23
2019-01-18T21:49:27.814Z,8.20
2019-01-18T21:53:14.375Z,7.03
2019-01-18T21:57:02.688Z,9.53
2019-01-18T22:00:22.959Z,7.40
2019-01-18T22:03:58.150Z,4.97
2019-01-18T22:07:45.513Z,4.97
2019-01-18T22:11:02.147Z,5.37
2019-01-18T22:14:57.823Z,5.67
2019-01-18T22:18:36.998Z,8.73
2019-01-18T22:22:16.814Z,5.73
2019-01-18T22:26:32.454Z,5.63
2019-01-18T22:29:57.136Z,10.17
2019-01-18T22:33:25.282Z,6.57
2019-01-18T22:36:58.515Z,6.80
2019-01-18T22:40:31.504Z,10.00
2019-01-18T22:44:24.712Z,5.13
2019-01-18T22:47:52.713Z,5.83
2019-01-18T22:51:36.021Z,5.80
2019-01-18T22:54:59.711Z,5.13
2019-01-18T22:59:02.923Z,9.87
2019-01-18T23:02:31.178Z,12.50
2019-01-18T23:06:05.134Z,8.57
2019-01-18T23:09:46.239Z,11.60
2019-01-18T23:13:00.627Z,6.60
2019-01-18T23:16:44.534Z,7.07
2019-01-18T23:20:32.069Z,8.90
2019-01-18T23:23:56.859Z,8.67
2019-01-18T23:27:32.128Z,4.80
2019-01-18T23:31:01.268Z,7.30
2019-01-18T23:34:16.240Z,6.50
2019-01-18T23:37:41.707Z,8.27
2019-01-18T23:41:20.370Z,8.90
2019-01-18T23:45:17.674Z,6.03
2019-01-18T23:48:55.906Z,9.27
2019-01-18T23:52:54.136Z,9.87
2019-01-18T23:56:20.926Z,5.70
